sensor_id;sensor_type;location;lat;lon;timestamp;pressure;altitude;pressure_sealevel;temperature;humidity
57094;BME280;42970;50.996;3.706;2022-12-07T00:00:54;78006.88;;;-146.65;100.00
57094;BME280;42970;50.996;3.706;2022-12-07T00:03:20;78002.81;;;-146.65;100.00
57094;BME280;42970;50.996;3.706;2022-12-07T00:05:45;77996.78;;;-146.65;100.00
57094;BME280;42970;50.996;3.706;2022-12-07T00:08:10;77986.69;;;-146.65;100.00
57094;BME280;42970;50.996;3.706;2022-12-07T00:10:36;77984.66;;;-146.65;100.00
57094;BME280;42970;50.996;3.706;2022-12-07T00:13:01;77972.56;;;-146.65;100.00
57094;BME280;42970;50.996;3.706;2022-12-07T00:15:26;77954.38;;;-146.65;100.00
57094;BME280;42970;50.996;3.706;2022-12-07T00:17:52;77948.34;;;-146.65;100.00
57094;BME280;42970;50.996;3.706;2022-12-07T00:20:17;77942.28;;;-146.65;100.00
57094;BME280;42970;50.996;3.706;2022-12-07T00:22:42;77938.25;;;-146.65;100.00
57094;BME280;42970;50.996;3.706;2022-12-07T00:25:08;77940.25;;;-146.65;100.00
57094;BME280;42970;50.996;3.706;2022-12-07T00:27:36;77944.28;;;-146.65;100.00
57094;BME280;42970;50.996;3.706;2022-12-07T00:30:02;77946.31;;;-146.65;100.00
57094;BME280;42970;50.996;3.706;2022-12-07T00:32:27;77966.50;;;-146.65;100.00
57094;BME280;42970;50.996;3.706;2022-12-07T00:34:52;77964.47;;;-146.65;100.00
57094;BME280;42970;50.996;3.706;2022-12-07T00:37:18;77966.50;;;-146.65;100.00
57094;BME280;42970;50.996;3.706;2022-12-07T00:39:43;77964.47;;;-146.65;100.00
57094;BME280;42970;50.996;3.706;2022-12-07T00:42:08;77954.38;;;-146.65;100.00
57094;BME280;42970;50.996;3.706;2022-12-07T00:44:34;77950.34;;;-146.65;100.00
57094;BME280;42970;50.996;3.706;2022-12-07T00:46:59;77942.28;;;-146.65;100.00
57094;BME280;42970;50.996;3.706;2022-12-07T00:49:24;77960.44;;;-146.65;100.00
57094;BME280;42970;50.996;3.706;2022-12-07T00:51:50;77966.50;;;-146.65;100.00
57094;BME280;42970;50.996;3.706;2022-12-07T00:54:15;77976.59;;;-146.65;100.00
57094;BME280;42970;50.996;3.706;2022-12-07T00:56:40;78004.84;;;-146.65;100.00
57094;BME280;42970;50.996;3.706;2022-12-07T00:59:06;78018.97;;;-146.65;100.00
57094;BME280;42970;50.996;3.706;2022-12-07T01:01:35;78031.09;;;-146.65;100.00
57094;BME280;42970;50.996;3.706;2022-12-07T01:04:01;78039.16;;;-146.65;100.00
57094;BME280;42970;50.996;3.706;2022-12-07T01:06:26;78035.13;;;-146.65;100.00
57094;BME280;42970;50.996;3.706;2022-12-07T01:08:52;78047.22;;;-146.65;100.00
57094;BME280;42970;50.996;3.706;2022-12-07T01:11:19;78049.25;;;-146.65;100.00
57094;BME280;42970;50.996;3.706;2022-12-07T01:13:44;78047.22;;;-146.65;100.00
57094;BME280;42970;50.996;3.706;2022-12-07T01:16:11;78063.38;;;-146.65;100.00
57094;BME280;42970;50.996;3.706;2022-12-07T01:18:38;78069.44;;;-146.65;100.00
57094;BME280;42970;50.996;3.706;2022-12-07T01:24:00;78087.59;;;-146.65;100.00
57094;BME280;42970;50.996;3.706;2022-12-07T01:26:26;78095.66;;;-146.65;100.00
57094;BME280;42970;50.996;3.706;2022-12-07T01:28:51;78107.78;;;-146.65;100.00
57094;BME280;42970;50.996;3.706;2022-12-07T01:31:20;78115.84;;;-146.65;100.00
57094;BME280;42970;50.996;3.706;2022-12-07T01:33:47;78117.88;;;-146.65;100.00
57094;BME280;42970;50.996;3.706;2022-12-07T01:38:37;78164.28;;;-146.65;100.00
57094;BME280;42970;50.996;3.706;2022-12-07T01:41:03;78176.41;;;-146.65;100.00
57094;BME280;42970;50.996;3.706;2022-12-07T01:43:29;78192.56;;;-146.65;100.00
57094;BME280;42970;50.996;3.706;2022-12-07T01:45:55;78164.28;;;-146.65;100.00
57094;BME280;42970;50.996;3.706;2022-12-07T01:48:38;78140.06;;;-146.65;100.00
57094;BME280;42970;50.996;3.706;2022-12-07T01:51:05;78127.97;;;-146.65;100.00
57094;BME280;42970;50.996;3.706;2022-12-07T01:53:33;78138.06;;;-146.65;100.00
57094;BME280;42970;50.996;3.706;2022-12-07T01:56:00;78127.97;;;-146.65;100.00
57094;BME280;42970;50.996;3.706;2022-12-07T01:58:25;78127.97;;;-146.65;100.00
57094;BME280;42970;50.996;3.706;2022-12-07T02:00:50;78115.84;;;-146.65;100.00
57094;BME280;42970;50.996;3.706;2022-12-07T02:03:27;78129.97;;;-146.65;100.00
57094;BME280;42970;50.996;3.706;2022-12-07T02:05:55;78146.13;;;-146.65;100.00
57094;BME280;42970;50.996;3.706;2022-12-07T02:08:21;78172.38;;;-146.65;100.00
57094;BME280;42970;50.996;3.706;2022-12-07T02:10:46;78196.59;;;-146.65;100.00
57094;BME280;42970;50.996;3.706;2022-12-07T02:13:45;78230.91;;;-146.65;100.00
57094;BME280;42970;50.996;3.706;2022-12-07T02:21:11;78277.31;;;-146.65;100.00
57094;BME280;42970;50.996;3.706;2022-12-07T02:23:40;78297.50;;;-146.65;100.00
57094;BME280;42970;50.996;3.706;2022-12-07T02:26:16;78301.53;;;-146.65;100.00
57094;BME280;42970;50.996;3.706;2022-12-07T02:31:25;78311.63;;;-146.65;100.00
57094;BME280;42970;50.996;3.706;2022-12-07T02:33:54;78305.59;;;-146.65;100.00
57094;BME280;42970;50.996;3.706;2022-12-07T02:36:25;78297.50;;;-146.65;100.00
57094;BME280;42970;50.996;3.706;2022-12-07T02:38:55;78299.53;;;-146.65;100.00
57094;BME280;42970;50.996;3.706;2022-12-07T02:43:46;78285.41;;;-146.65;100.00
57094;BME280;42970;50.996;3.706;2022-12-07T02:46:47;78275.31;;;-146.65;100.00
57094;BME280;42970;50.996;3.706;2022-12-07T02:49:04;78267.22;;;-146.65;100.00
57094;BME280;42970;50.996;3.706;2022-12-07T02:51:31;78224.84;;;-146.65;100.00
57094;BME280;42970;50.996;3.706;2022-12-07T02:53:56;78232.91;;;-146.65;100.00
57094;BME280;42970;50.996;3.706;2022-12-07T03:04:20;78164.28;;;-146.65;100.00
57094;BME280;42970;50.996;3.706;2022-12-07T03:06:51;78148.16;;;-146.65;100.00
57094;BME280;42970;50.996;3.706;2022-12-07T03:09:37;78132.00;;;-146.65;100.00
57094;BME280;42970;50.996;3.706;2022-12-07T03:12:08;78123.94;;;-146.65;100.00
57094;BME280;42970;50.996;3.706;2022-12-07T03:14:38;78138.06;;;-146.65;100.00
57094;BME280;42970;50.996;3.706;2022-12-07T03:17:08;78140.06;;;-146.65;100.00
57094;BME280;42970;50.996;3.706;2022-12-07T03:19:38;78144.09;;;-146.65;100.00
57094;BME280;42970;50.996;3.706;2022-12-07T03:22:09;78150.16;;;-146.65;100.00
57094;BME280;42970;50.996;3.706;2022-12-07T03:24:37;78142.09;;;-146.65;100.00
57094;BME280;42970;50.996;3.706;2022-12-07T03:27:15;78121.91;;;-146.65;100.00
57094;BME280;42970;50.996;3.706;2022-12-07T03:30:04;78123.94;;;-146.65;100.00
57094;BME280;42970;50.996;3.706;2022-12-07T03:32:34;78119.88;;;-146.65;100.00
57094;BME280;42970;50.996;3.706;2022-12-07T03:37:37;78095.66;;;-146.65;100.00
57094;BME280;42970;50.996;3.706;2022-12-07T03:42:43;78121.91;;;-146.65;100.00
57094;BME280;42970;50.996;3.706;2022-12-07T03:45:08;78134.03;;;-146.65;100.00
57094;BME280;42970;50.996;3.706;2022-12-07T03:47:36;78146.13;;;-146.65;100.00
57094;BME280;42970;50.996;3.706;2022-12-07T03:50:25;78152.19;;;-146.65;100.00
57094;BME280;42970;50.996;3.706;2022-12-07T03:52:54;78172.38;;;-146.65;100.00
57094;BME280;42970;50.996;3.706;2022-12-07T03:57:47;78214.75;;;-146.65;100.00
57094;BME280;42970;50.996;3.706;2022-12-07T04:00:14;78230.91;;;-146.65;100.00
57094;BME280;42970;50.996;3.706;2022-12-07T04:02:40;78247.03;;;-146.65;100.00
57094;BME280;42970;50.996;3.706;2022-12-07T04:05:06;78261.19;;;-146.65;100.00
57094;BME280;42970;50.996;3.706;2022-12-07T04:07:32;78273.28;;;-146.65;100.00
57094;BME280;42970;50.996;3.706;2022-12-07T04:09:57;78271.25;;;-146.65;100.00
57094;BME280;42970;50.996;3.706;2022-12-07T04:12:22;78287.41;;;-146.65;100.00
57094;BME280;42970;50.996;3.706;2022-12-07T04:14:48;78301.53;;;-146.65;100.00
57094;BME280;42970;50.996;3.706;2022-12-07T04:17:13;78317.69;;;-146.65;100.00
57094;BME280;42970;50.996;3.706;2022-12-07T04:19:39;78333.84;;;-146.65;100.00
57094;BME280;42970;50.996;3.706;2022-12-07T04:22:04;78331.81;;;-146.65;100.00
57094;BME280;42970;50.996;3.706;2022-12-07T04:24:30;78301.53;;;-146.65;100.00
57094;BME280;42970;50.996;3.706;2022-12-07T04:26:56;78269.25;;;-146.65;100.00
57094;BME280;42970;50.996;3.706;2022-12-07T04:29:21;78249.06;;;-146.65;100.00
57094;BME280;42970;50.996;3.706;2022-12-07T04:31:47;78236.94;;;-146.65;100.00
57094;BME280;42970;50.996;3.706;2022-12-07T04:34:12;78241.00;;;-146.65;100.00
57094;BME280;42970;50.996;3.706;2022-12-07T04:36:38;78243.00;;;-146.65;100.00
57094;BME280;42970;50.996;3.706;2022-12-07T04:39:04;78228.88;;;-146.65;100.00
57094;BME280;42970;50.996;3.706;2022-12-07T04:41:30;78220.81;;;-146.65;100.00
57094;BME280;42970;50.996;3.706;2022-12-07T04:43:56;78243.00;;;-146.65;100.00
57094;BME280;42970;50.996;3.706;2022-12-07T04:46:22;78253.09;;;-146.65;100.00
57094;BME280;42970;50.996;3.706;2022-12-07T04:48:47;78279.34;;;-146.65;100.00
57094;BME280;42970;50.996;3.706;2022-12-07T04:51:14;78281.34;;;-146.65;100.00
57094;BME280;42970;50.996;3.706;2022-12-07T04:53:40;78283.38;;;-146.65;100.00
57094;BME280;42970;50.996;3.706;2022-12-07T04:56:06;78281.34;;;-146.65;100.00
57094;BME280;42970;50.996;3.706;2022-12-07T04:58:31;78212.72;;;-146.65;100.00
57094;BME280;42970;50.996;3.706;2022-12-07T05:00:56;78218.78;;;-146.65;100.00
57094;BME280;42970;50.996;3.706;2022-12-07T05:03:21;78202.66;;;-146.65;100.00
57094;BME280;42970;50.996;3.706;2022-12-07T05:05:47;78194.56;;;-146.65;100.00
57094;BME280;42970;50.996;3.706;2022-12-07T05:08:12;78204.66;;;-146.65;100.00
57094;BME280;42970;50.996;3.706;2022-12-07T05:10:38;78196.59;;;-146.65;100.00
57094;BME280;42970;50.996;3.706;2022-12-07T05:13:03;78188.50;;;-146.65;100.00
57094;BME280;42970;50.996;3.706;2022-12-07T05:15:28;78170.34;;;-146.65;100.00
57094;BME280;42970;50.996;3.706;2022-12-07T05:17:54;78178.41;;;-146.65;100.00
57094;BME280;42970;50.996;3.706;2022-12-07T05:20:19;78180.44;;;-146.65;100.00
57094;BME280;42970;50.996;3.706;2022-12-07T05:22:44;78182.47;;;-146.65;100.00
57094;BME280;42970;50.996;3.706;2022-12-07T05:25:09;78180.44;;;-146.65;100.00
57094;BME280;42970;50.996;3.706;2022-12-07T05:27:35;78204.66;;;-146.65;100.00
57094;BME280;42970;50.996;3.706;2022-12-07T05:30:00;78214.75;;;-146.65;100.00
57094;BME280;42970;50.996;3.706;2022-12-07T05:32:26;78224.84;;;-146.65;100.00
57094;BME280;42970;50.996;3.706;2022-12-07T05:34:51;78220.81;;;-146.65;100.00
57094;BME280;42970;50.996;3.706;2022-12-07T05:37:17;78202.66;;;-146.65;100.00
57094;BME280;42970;50.996;3.706;2022-12-07T05:39:42;78206.69;;;-146.65;100.00
57094;BME280;42970;50.996;3.706;2022-12-07T05:42:08;78234.94;;;-146.65;100.00
57094;BME280;42970;50.996;3.706;2022-12-07T05:44:38;78269.25;;;-146.65;100.00
57094;BME280;42970;50.996;3.706;2022-12-07T05:47:03;78287.41;;;-146.65;100.00
57094;BME280;42970;50.996;3.706;2022-12-07T05:49:29;78299.53;;;-146.65;100.00
57094;BME280;42970;50.996;3.706;2022-12-07T05:51:54;78313.66;;;-146.65;100.00
57094;BME280;42970;50.996;3.706;2022-12-07T05:54:20;78321.72;;;-146.65;100.00
57094;BME280;42970;50.996;3.706;2022-12-07T05:56:45;78325.75;;;-146.65;100.00
57094;BME280;42970;50.996;3.706;2022-12-07T05:59:10;78321.72;;;-146.65;100.00
57094;BME280;42970;50.996;3.706;2022-12-07T06:01:49;78311.63;;;-146.65;100.00
57094;BME280;42970;50.996;3.706;2022-12-07T06:04:14;78333.84;;;-146.65;100.00
57094;BME280;42970;50.996;3.706;2022-12-07T06:06:40;78327.78;;;-146.65;100.00
57094;BME280;42970;50.996;3.706;2022-12-07T06:09:05;78329.81;;;-146.65;100.00
57094;BME280;42970;50.996;3.706;2022-12-07T06:11:30;78335.84;;;-146.65;100.00
57094;BME280;42970;50.996;3.706;2022-12-07T06:14:14;78303.56;;;-146.65;100.00
57094;BME280;42970;50.996;3.706;2022-12-07T06:16:40;78299.53;;;-146.65;100.00
57094;BME280;42970;50.996;3.706;2022-12-07T06:19:05;78299.53;;;-146.65;100.00
57094;BME280;42970;50.996;3.706;2022-12-07T06:21:30;78303.56;;;-146.65;100.00
57094;BME280;42970;50.996;3.706;2022-12-07T06:23:55;78283.38;;;-146.65;100.00
57094;BME280;42970;50.996;3.706;2022-12-07T06:26:21;78247.03;;;-146.65;100.00
57094;BME280;42970;50.996;3.706;2022-12-07T06:28:46;78257.13;;;-146.65;100.00
57094;BME280;42970;50.996;3.706;2022-12-07T06:31:11;78293.47;;;-146.65;100.00
57094;BME280;42970;50.996;3.706;2022-12-07T06:33:37;78313.66;;;-146.65;100.00
57094;BME280;42970;50.996;3.706;2022-12-07T06:36:02;78335.84;;;-146.65;100.00
57094;BME280;42970;50.996;3.706;2022-12-07T06:38:28;78352.00;;;-146.65;100.00
57094;BME280;42970;50.996;3.706;2022-12-07T06:40:53;78354.03;;;-146.65;100.00
57094;BME280;42970;50.996;3.706;2022-12-07T06:43:18;78345.94;;;-146.65;100.00
57094;BME280;42970;50.996;3.706;2022-12-07T06:45:43;78329.81;;;-146.65;100.00
57094;BME280;42970;50.996;3.706;2022-12-07T06:48:09;78289.44;;;-146.65;100.00
57094;BME280;42970;50.996;3.706;2022-12-07T06:50:34;78271.25;;;-146.65;100.00
57094;BME280;42970;50.996;3.706;2022-12-07T06:52:59;78257.13;;;-146.65;100.00
57094;BME280;42970;50.996;3.706;2022-12-07T06:55:25;78269.25;;;-146.65;100.00
57094;BME280;42970;50.996;3.706;2022-12-07T06:57:50;78273.28;;;-146.65;100.00
57094;BME280;42970;50.996;3.706;2022-12-07T07:00:15;78263.19;;;-146.65;100.00
57094;BME280;42970;50.996;3.706;2022-12-07T07:02:41;78243.00;;;-146.65;100.00
57094;BME280;42970;50.996;3.706;2022-12-07T07:05:06;78245.03;;;-146.65;100.00
57094;BME280;42970;50.996;3.706;2022-12-07T07:07:32;78238.97;;;-146.65;100.00
57094;BME280;42970;50.996;3.706;2022-12-07T07:09:57;78238.97;;;-146.65;100.00
57094;BME280;42970;50.996;3.706;2022-12-07T07:12:22;78241.00;;;-146.65;100.00
57094;BME280;42970;50.996;3.706;2022-12-07T07:14:48;78243.00;;;-146.65;100.00
57094;BME280;42970;50.996;3.706;2022-12-07T07:17:13;78236.94;;;-146.65;100.00
57094;BME280;42970;50.996;3.706;2022-12-07T07:19:38;78247.03;;;-146.65;100.00
57094;BME280;42970;50.996;3.706;2022-12-07T07:22:04;78247.03;;;-146.65;100.00
57094;BME280;42970;50.996;3.706;2022-12-07T07:24:29;78249.06;;;-146.65;100.00
57094;BME280;42970;50.996;3.706;2022-12-07T07:26:54;78245.03;;;-146.65;100.00
57094;BME280;42970;50.996;3.706;2022-12-07T07:29:20;78251.09;;;-146.65;100.00
57094;BME280;42970;50.996;3.706;2022-12-07T07:31:45;78241.00;;;-146.65;100.00
57094;BME280;42970;50.996;3.706;2022-12-07T07:34:11;78247.03;;;-146.65;100.00
57094;BME280;42970;50.996;3.706;2022-12-07T07:36:36;78251.09;;;-146.65;100.00
57094;BME280;42970;50.996;3.706;2022-12-07T07:39:01;78241.00;;;-146.65;100.00
57094;BME280;42970;50.996;3.706;2022-12-07T07:41:26;78238.97;;;-146.65;100.00
57094;BME280;42970;50.996;3.706;2022-12-07T07:43:52;78241.00;;;-146.65;100.00
57094;BME280;42970;50.996;3.706;2022-12-07T07:46:17;78245.03;;;-146.65;100.00
57094;BME280;42970;50.996;3.706;2022-12-07T07:48:42;78253.09;;;-146.65;100.00
57094;BME280;42970;50.996;3.706;2022-12-07T07:51:08;78259.16;;;-146.65;100.00
57094;BME280;42970;50.996;3.706;2022-12-07T07:53:33;78253.09;;;-146.65;100.00
57094;BME280;42970;50.996;3.706;2022-12-07T07:55:59;78245.03;;;-146.65;100.00
57094;BME280;42970;50.996;3.706;2022-12-07T07:58:24;78230.91;;;-146.65;100.00
57094;BME280;42970;50.996;3.706;2022-12-07T08:00:49;78222.81;;;-146.65;100.00
57094;BME280;42970;50.996;3.706;2022-12-07T08:03:14;78206.69;;;-146.65;100.00
57094;BME280;42970;50.996;3.706;2022-12-07T08:05:40;78208.69;;;-146.65;100.00
57094;BME280;42970;50.996;3.706;2022-12-07T08:08:05;78210.72;;;-146.65;100.00
57094;BME280;42970;50.996;3.706;2022-12-07T08:10:31;78200.63;;;-146.65;100.00
57094;BME280;42970;50.996;3.706;2022-12-07T08:12:57;78204.66;;;-146.65;100.00
57094;BME280;42970;50.996;3.706;2022-12-07T08:15:45;78212.72;;;-146.65;100.00
57094;BME280;42970;50.996;3.706;2022-12-07T08:18:11;78212.72;;;-146.65;100.00
57094;BME280;42970;50.996;3.706;2022-12-07T08:20:37;78202.66;;;-146.65;100.00
57094;BME280;42970;50.996;3.706;2022-12-07T08:23:02;78194.56;;;-146.65;100.00
57094;BME280;42970;50.996;3.706;2022-12-07T08:25:28;78178.41;;;-146.65;100.00
57094;BME280;42970;50.996;3.706;2022-12-07T08:27:53;78172.38;;;-146.65;100.00
57094;BME280;42970;50.996;3.706;2022-12-07T08:30:19;78150.16;;;-146.65;100.00
57094;BME280;42970;50.996;3.706;2022-12-07T08:32:45;78138.06;;;-146.65;100.00
57094;BME280;42970;50.996;3.706;2022-12-07T08:35:10;78127.97;;;-146.65;100.00
57094;BME280;42970;50.996;3.706;2022-12-07T08:37:35;78105.75;;;-146.65;100.00
57094;BME280;42970;50.996;3.706;2022-12-07T08:40:01;78119.88;;;-146.65;100.00
57094;BME280;42970;50.996;3.706;2022-12-07T08:42:27;78123.94;;;-146.65;100.00
57094;BME280;42970;50.996;3.706;2022-12-07T08:44:55;78121.91;;;-146.65;100.00
57094;BME280;42970;50.996;3.706;2022-12-07T08:47:20;78115.84;;;-146.65;100.00
57094;BME280;42970;50.996;3.706;2022-12-07T08:49:46;78079.53;;;-146.65;100.00
57094;BME280;42970;50.996;3.706;2022-12-07T08:52:12;78045.22;;;-146.65;100.00
57094;BME280;42970;50.996;3.706;2022-12-07T08:54:38;78037.13;;;-146.65;100.00
57094;BME280;42970;50.996;3.706;2022-12-07T08:57:05;78016.94;;;-146.65;100.00
57094;BME280;42970;50.996;3.706;2022-12-07T08:59:31;77982.66;;;-146.65;100.00
57094;BME280;42970;50.996;3.706;2022-12-07T09:01:59;77966.50;;;-146.65;100.00
57094;BME280;42970;50.996;3.706;2022-12-07T09:04:24;77942.28;;;-146.65;100.00
57094;BME280;42970;50.996;3.706;2022-12-07T09:06:49;77934.22;;;-146.65;100.00
57094;BME280;42970;50.996;3.706;2022-12-07T09:09:15;77922.09;;;-146.65;100.00
57094;BME280;42970;50.996;3.706;2022-12-07T09:11:40;77916.03;;;-146.65;100.00
57094;BME280;42970;50.996;3.706;2022-12-07T09:14:05;77871.63;;;-146.65;100.00
57094;BME280;42970;50.996;3.706;2022-12-07T09:16:31;77825.22;;;-146.65;100.00
57094;BME280;42970;50.996;3.706;2022-12-07T09:18:56;77772.75;;;-146.65;100.00
57094;BME280;42970;50.996;3.706;2022-12-07T09:21:21;77746.50;;;-146.65;100.00
57094;BME280;42970;50.996;3.706;2022-12-07T09:23:47;77780.81;;;-146.65;100.00
57094;BME280;42970;50.996;3.706;2022-12-07T09:26:12;77794.94;;;-146.65;100.00
57094;BME280;42970;50.996;3.706;2022-12-07T09:28:38;77833.28;;;-146.65;100.00
57094;BME280;42970;50.996;3.706;2022-12-07T09:31:04;77831.28;;;-146.65;100.00
57094;BME280;42970;50.996;3.706;2022-12-07T09:33:29;77841.38;;;-146.65;100.00
57094;BME280;42970;50.996;3.706;2022-12-07T09:35:55;77857.50;;;-146.65;100.00
57094;BME280;42970;50.996;3.706;2022-12-07T09:38:20;77865.59;;;-146.65;100.00
57094;BME280;42970;50.996;3.706;2022-12-07T09:40:46;77875.69;;;-146.65;100.00
57094;BME280;42970;50.996;3.706;2022-12-07T09:43:13;77879.72;;;-146.65;100.00
57094;BME280;42970;50.996;3.706;2022-12-07T09:45:39;77881.72;;;-146.65;100.00
57094;BME280;42970;50.996;3.706;2022-12-07T09:48:04;77909.97;;;-146.65;100.00
57094;BME280;42970;50.996;3.706;2022-12-07T09:50:30;77914.03;;;-146.65;100.00
57094;BME280;42970;50.996;3.706;2022-12-07T09:53:00;77918.06;;;-146.65;100.00
57094;BME280;42970;50.996;3.706;2022-12-07T09:55:30;77924.13;;;-146.65;100.00
57094;BME280;42970;50.996;3.706;2022-12-07T09:57:56;77909.97;;;-146.65;100.00
57094;BME280;42970;50.996;3.706;2022-12-07T10:00:22;77905.94;;;-146.65;100.00
57094;BME280;42970;50.996;3.706;2022-12-07T10:05:36;77897.88;;;-146.65;100.00
57094;BME280;42970;50.996;3.706;2022-12-07T10:08:03;77885.75;;;-146.65;100.00
57094;BME280;42970;50.996;3.706;2022-12-07T10:10:30;77877.69;;;-146.65;100.00
57094;BME280;42970;50.996;3.706;2022-12-07T10:12:57;77865.59;;;-146.65;100.00
57094;BME280;42970;50.996;3.706;2022-12-07T10:15:23;77857.50;;;-146.65;100.00
57094;BME280;42970;50.996;3.706;2022-12-07T10:17:49;77853.47;;;-146.65;100.00
57094;BME280;42970;50.996;3.706;2022-12-07T10:20:16;77847.41;;;-146.65;100.00
57094;BME280;42970;50.996;3.706;2022-12-07T10:25:21;77823.19;;;-146.65;100.00
57094;BME280;42970;50.996;3.706;2022-12-07T10:30:24;77817.16;;;-146.65;100.00
57094;BME280;42970;50.996;3.706;2022-12-07T10:32:49;77796.97;;;-146.65;100.00
57094;BME280;42970;50.996;3.706;2022-12-07T10:37:46;77764.69;;;-146.65;100.00
57094;BME280;42970;50.996;3.706;2022-12-07T10:43:00;77738.44;;;-146.65;100.00
57094;BME280;42970;50.996;3.706;2022-12-07T10:45:25;77738.44;;;-146.65;100.00
57094;BME280;42970;50.996;3.706;2022-12-07T10:55:56;77623.41;;;-146.65;100.00
57094;BME280;42970;50.996;3.706;2022-12-07T11:06:42;77722.28;;;-146.65;100.00
57094;BME280;42970;50.996;3.706;2022-12-07T11:17:21;77784.84;;;-146.65;100.00
57094;BME280;42970;50.996;3.706;2022-12-07T11:19:32;77768.72;;;-146.65;100.00
57094;BME280;42970;50.996;3.706;2022-12-07T11:24:49;77760.63;;;-146.65;100.00
57094;BME280;42970;50.996;3.706;2022-12-07T11:29:58;77728.34;;;-146.65;100.00
57094;BME280;42970;50.996;3.706;2022-12-07T11:37:33;77742.47;;;-146.65;100.00
57094;BME280;42970;50.996;3.706;2022-12-07T11:40:22;77742.47;;;-146.65;100.00
57094;BME280;42970;50.996;3.706;2022-12-07T11:42:47;77736.41;;;-146.65;100.00
57094;BME280;42970;50.996;3.706;2022-12-07T11:45:15;77734.41;;;-146.65;100.00
57094;BME280;42970;50.996;3.706;2022-12-07T11:48:17;77738.44;;;-146.65;100.00
57094;BME280;42970;50.996;3.706;2022-12-07T11:50:41;77726.34;;;-146.65;100.00
57094;BME280;42970;50.996;3.706;2022-12-07T11:55:56;77554.78;;;-146.65;100.00
57094;BME280;42970;50.996;3.706;2022-12-07T12:03:34;77574.97;;;-146.65;100.00
57094;BME280;42970;50.996;3.706;2022-12-07T12:06:01;77587.09;;;-146.65;100.00
57094;BME280;42970;50.996;3.706;2022-12-07T12:08:35;77581.03;;;-146.65;100.00
57094;BME280;42970;50.996;3.706;2022-12-07T12:16:06;77615.34;;;-146.65;100.00
57094;BME280;42970;50.996;3.706;2022-12-07T12:23:34;77667.81;;;-146.65;100.00
57094;BME280;42970;50.996;3.706;2022-12-07T12:26:05;77673.84;;;-146.65;100.00
57094;BME280;42970;50.996;3.706;2022-12-07T12:31:16;77683.94;;;-146.65;100.00
57094;BME280;42970;50.996;3.706;2022-12-07T12:33:55;77698.06;;;-146.65;100.00
57094;BME280;42970;50.996;3.706;2022-12-07T12:37:02;77700.09;;;-146.65;100.00
57094;BME280;42970;50.996;3.706;2022-12-07T12:39:18;77702.13;;;-146.65;100.00
57094;BME280;42970;50.996;3.706;2022-12-07T12:54:14;77667.81;;;-146.65;100.00
57094;BME280;42970;50.996;3.706;2022-12-07T12:56:55;77665.78;;;-146.65;100.00
57094;BME280;42970;50.996;3.706;2022-12-07T12:59:29;77647.63;;;-146.65;100.00
57094;BME280;42970;50.996;3.706;2022-12-07T13:02:05;77647.63;;;-146.65;100.00
57094;BME280;42970;50.996;3.706;2022-12-07T13:04:49;77647.63;;;-146.65;100.00
57094;BME280;42970;50.996;3.706;2022-12-07T13:09:59;77647.63;;;-146.65;100.00
57094;BME280;42970;50.996;3.706;2022-12-07T13:12:26;77631.47;;;-146.65;100.00
57094;BME280;42970;50.996;3.706;2022-12-07T13:14:56;77611.31;;;-146.65;100.00
57094;BME280;42970;50.996;3.706;2022-12-07T13:19:56;77587.09;;;-146.65;100.00
57094;BME280;42970;50.996;3.706;2022-12-07T13:24:57;77587.09;;;-146.65;100.00
57094;BME280;42970;50.996;3.706;2022-12-07T13:27:24;77587.09;;;-146.65;100.00
57094;BME280;42970;50.996;3.706;2022-12-07T13:29:50;77591.13;;;-146.65;100.00
57094;BME280;42970;50.996;3.706;2022-12-07T13:32:25;77583.03;;;-146.65;100.00
57094;BME280;42970;50.996;3.706;2022-12-07T13:34:51;77587.09;;;-146.65;100.00
57094;BME280;42970;50.996;3.706;2022-12-07T13:37:27;77583.03;;;-146.65;100.00
57094;BME280;42970;50.996;3.706;2022-12-07T13:44:49;77558.81;;;-146.65;100.00
57094;BME280;42970;50.996;3.706;2022-12-07T13:47:17;77562.88;;;-146.65;100.00
57094;BME280;42970;50.996;3.706;2022-12-07T13:49:52;77562.88;;;-146.65;100.00
57094;BME280;42970;50.996;3.706;2022-12-07T13:52:18;77538.66;;;-146.65;100.00
57094;BME280;42970;50.996;3.706;2022-12-07T13:54:47;77530.56;;;-146.65;100.00
57094;BME280;42970;50.996;3.706;2022-12-07T13:57:14;77518.47;;;-146.65;100.00
57094;BME280;42970;50.996;3.706;2022-12-07T13:59:39;77504.34;;;-146.65;100.00
57094;BME280;42970;50.996;3.706;2022-12-07T14:02:20;77478.09;;;-146.65;100.00
57094;BME280;42970;50.996;3.706;2022-12-07T14:04:47;77476.09;;;-146.65;100.00
57094;BME280;42970;50.996;3.706;2022-12-07T14:07:26;77478.09;;;-146.65;100.00
57094;BME280;42970;50.996;3.706;2022-12-07T14:12:20;77472.06;;;-146.65;100.00
57094;BME280;42970;50.996;3.706;2022-12-07T14:14:48;77482.13;;;-146.65;100.00
57094;BME280;42970;50.996;3.706;2022-12-07T14:19:49;77502.31;;;-146.65;100.00
57094;BME280;42970;50.996;3.706;2022-12-07T14:27:46;77514.44;;;-146.65;100.00
57094;BME280;42970;50.996;3.706;2022-12-07T14:30:15;77526.53;;;-146.65;100.00
57094;BME280;42970;50.996;3.706;2022-12-07T14:32:41;77522.50;;;-146.65;100.00
57094;BME280;42970;50.996;3.706;2022-12-07T14:35:09;77534.63;;;-146.65;100.00
57094;BME280;42970;50.996;3.706;2022-12-07T14:37:35;77528.56;;;-146.65;100.00
57094;BME280;42970;50.996;3.706;2022-12-07T14:40:01;77538.66;;;-146.65;100.00
57094;BME280;42970;50.996;3.706;2022-12-07T14:42:27;77532.59;;;-146.65;100.00
57094;BME280;42970;50.996;3.706;2022-12-07T14:44:54;77522.50;;;-146.65;100.00
57094;BME280;42970;50.996;3.706;2022-12-07T14:47:19;77534.63;;;-146.65;100.00